createdAt,value
2023-02-06T00:02:08.092Z,13.47
2023-02-06T00:07:09.750Z,13.67
2023-02-06T00:12:13.866Z,16.37
2023-02-06T00:17:15.535Z,18.27
2023-02-06T00:22:17.247Z,18.63
2023-02-06T00:27:18.969Z,19.80
2023-02-06T00:32:20.714Z,20.03
2023-02-06T00:37:22.429Z,19.07
2023-02-06T00:42:24.085Z,18.93
2023-02-06T00:47:25.769Z,16.57
2023-02-06T00:52:27.483Z,12.70
2023-02-06T00:57:29.139Z,12.80
2023-02-06T01:02:30.835Z,11.70
2023-02-06T01:07:32.552Z,13.87
2023-02-06T01:12:35.607Z,11.13
2023-02-06T01:17:38.396Z,11.50
2023-02-06T01:22:40.278Z,12.43
2023-02-06T01:27:41.973Z,12.43
2023-02-06T01:32:43.726Z,12.30
2023-02-06T01:37:45.468Z,14.63
2023-02-06T01:42:47.164Z,14.47
2023-02-06T01:47:51.811Z,13.30
2023-02-06T01:52:53.524Z,14.33
2023-02-06T01:57:55.311Z,13.77
2023-02-06T02:02:57.096Z,14.27
2023-02-06T02:08:13.343Z,14.77
2023-02-06T02:13:15.015Z,15.40
2023-02-06T02:18:40.307Z,15.90
2023-02-06T02:24:12.873Z,15.80
2023-02-06T02:29:46.979Z,15.03
2023-02-06T02:35:11.935Z,14.30
2023-02-06T02:40:18.045Z,15.17
2023-02-06T02:45:28.138Z,14.73
2023-02-06T02:50:30.618Z,15.17
2023-02-06T02:55:32.377Z,16.37
2023-02-06T03:00:43.279Z,16.97
2023-02-06T03:06:02.351Z,16.73
2023-02-06T03:11:13.312Z,17.10
2023-02-06T03:16:19.264Z,17.53
2023-02-06T03:21:23.528Z,17.33
2023-02-06T03:26:28.736Z,16.70
2023-02-06T03:31:47.253Z,17.33
2023-02-06T03:36:50.043Z,16.10
2023-02-06T03:41:53.963Z,16.23
2023-02-06T03:46:56.648Z,15.93
2023-02-06T03:52:08.829Z,15.07
2023-02-06T03:57:14.173Z,14.07
2023-02-06T04:02:16.936Z,16.63
2023-02-06T04:07:25.713Z,16.33
2023-02-06T04:12:27.568Z,14.47
2023-02-06T04:17:46.351Z,13.87
2023-02-06T04:22:51.084Z,15.87
2023-02-06T04:27:52.820Z,15.70
2023-02-06T04:32:54.536Z,15.80
2023-02-06T04:37:56.247Z,14.60
2023-02-06T04:42:58.026Z,16.10
2023-02-06T04:47:59.772Z,16.87
2023-02-06T04:53:01.595Z,16.43
2023-02-06T04:58:03.533Z,14.63
2023-02-06T05:03:05.298Z,13.83
2023-02-06T05:08:06.969Z,15.00
2023-02-06T05:13:08.609Z,14.97
2023-02-06T05:18:10.499Z,15.40
2023-02-06T05:23:12.279Z,15.53
2023-02-06T05:28:13.931Z,15.90
2023-02-06T05:33:15.876Z,14.73
2023-02-06T05:38:17.848Z,16.20
2023-02-06T05:43:19.522Z,15.70
2023-02-06T05:48:21.266Z,15.57
2023-02-06T05:53:23.287Z,15.07
2023-02-06T05:58:25.088Z,15.40
2023-02-06T06:03:27.076Z,14.70
2023-02-06T06:08:28.942Z,14.53
2023-02-06T06:13:30.698Z,15.37
2023-02-06T06:18:32.474Z,16.47
2023-02-06T06:23:34.179Z,15.90
2023-02-06T06:28:38.505Z,14.37
2023-02-06T06:33:40.649Z,15.43
2023-02-06T06:38:42.386Z,14.37
2023-02-06T06:43:44.074Z,14.83
2023-02-06T06:48:45.752Z,14.37
2023-02-06T06:53:47.535Z,14.40
2023-02-06T06:58:50.159Z,15.33
2023-02-06T07:03:51.813Z,15.27
2023-02-06T07:08:53.628Z,15.67
2023-02-06T07:13:55.335Z,16.37
2023-02-06T07:18:57.002Z,16.63
2023-02-06T07:23:58.835Z,18.93
2023-02-06T07:29:00.569Z,18.17
2023-02-06T07:34:02.319Z,19.23
2023-02-06T07:39:04.279Z,19.77
2023-02-06T07:44:06.646Z,20.87
2023-02-06T07:49:08.520Z,19.93
2023-02-06T07:54:11.286Z,20.67
2023-02-06T07:59:12.931Z,19.57
2023-02-06T08:04:14.639Z,19.77
2023-02-06T08:09:19.074Z,18.63
2023-02-06T08:14:20.715Z,17.60
2023-02-06T08:19:22.567Z,17.87
2023-02-06T08:24:24.220Z,15.87
2023-02-06T08:29:26.251Z,14.93
2023-02-06T08:34:27.973Z,14.27
2023-02-06T08:39:29.732Z,12.97
2023-02-06T08:44:31.583Z,11.13
2023-02-06T08:49:33.366Z,10.33
2023-02-06T08:54:37.245Z,10.67
2023-02-06T08:59:41.531Z,10.93
2023-02-06T09:04:43.364Z,10.67
2023-02-06T09:09:45.014Z,9.23
2023-02-06T09:14:46.793Z,10.03
2023-02-06T09:19:48.447Z,9.80
2023-02-06T09:24:50.313Z,9.97
2023-02-06T09:29:52.059Z,13.30
2023-02-06T09:34:53.705Z,14.47
2023-02-06T09:39:55.340Z,14.33
2023-02-06T09:45:13.905Z,13.80
2023-02-06T09:50:39.663Z,14.07
2023-02-06T09:56:07.347Z,11.83
2023-02-06T10:01:22.191Z,9.83
2023-02-06T10:06:43.570Z,10.17
2023-02-06T10:12:06.376Z,14.20
2023-02-06T10:17:35.977Z,14.47
2023-02-06T10:23:08.152Z,16.80
2023-02-06T10:28:23.023Z,18.13
2023-02-06T10:33:41.862Z,18.53
2023-02-06T10:39:25.032Z,17.57
2023-02-06T10:44:50.825Z,17.30
2023-02-06T10:50:01.264Z,15.07
2023-02-06T10:55:18.112Z,15.50
2023-02-06T11:00:27.473Z,12.60
2023-02-06T11:05:31.791Z,10.70
2023-02-06T11:10:34.078Z,10.20
2023-02-06T11:15:42.839Z,6.17
2023-02-06T11:20:46.172Z,3.80
2023-02-06T11:26:15.369Z,3.57
2023-02-06T11:31:39.537Z,4.00
2023-02-06T11:36:42.494Z,5.30
2023-02-06T11:42:06.632Z,4.50
2023-02-06T11:47:36.094Z,4.17
2023-02-06T11:52:41.215Z,4.70
2023-02-06T11:57:42.977Z,5.80
2023-02-06T12:02:51.377Z,5.33
2023-02-06T12:08:07.395Z,5.47
2023-02-06T12:13:21.022Z,5.13
2023-02-06T12:18:27.123Z,5.70
2023-02-06T12:23:35.190Z,5.70
2023-02-06T12:29:00.189Z,6.13
2023-02-06T12:34:21.797Z,7.50
2023-02-06T12:39:23.552Z,6.70
2023-02-06T12:44:40.546Z,8.30
2023-02-06T12:49:51.339Z,7.13
2023-02-06T12:55:08.012Z,6.83
2023-02-06T13:00:48.183Z,7.47
2023-02-06T13:06:10.083Z,8.90
2023-02-06T13:11:27.547Z,7.00
2023-02-06T13:16:58.671Z,9.40
2023-02-06T13:22:09.268Z,11.03
2023-02-06T13:27:13.641Z,7.67
2023-02-06T13:32:15.457Z,7.97
2023-02-06T13:37:33.506Z,7.47
2023-02-06T13:43:04.586Z,10.07
2023-02-06T13:48:31.094Z,7.60
2023-02-06T13:53:56.571Z,7.50
2023-02-06T13:59:05.935Z,8.33
2023-02-06T14:04:14.032Z,7.17
2023-02-06T14:09:30.588Z,7.40
2023-02-06T14:14:38.238Z,7.63
2023-02-06T14:20:00.320Z,7.60
2023-02-06T14:25:10.915Z,8.23
2023-02-06T14:30:24.219Z,7.83
2023-02-06T14:35:38.247Z,7.93
2023-02-06T14:40:42.611Z,8.70
2023-02-06T14:46:04.129Z,8.17
2023-02-06T14:51:17.739Z,9.10
2023-02-06T14:56:27.183Z,8.33
2023-02-06T15:01:30.296Z,8.80
2023-02-06T15:06:36.467Z,9.00
2023-02-06T15:11:38.101Z,8.63
2023-02-06T15:16:47.954Z,8.03
2023-02-06T15:21:52.407Z,7.80
2023-02-06T15:27:05.367Z,7.90
2023-02-06T15:32:25.095Z,7.50
2023-02-06T15:37:31.048Z,7.67
2023-02-06T15:42:33.235Z,7.20
2023-02-06T15:47:35.198Z,7.60
2023-02-06T15:52:42.808Z,7.40
2023-02-06T15:57:45.273Z,7.43
2023-02-06T16:02:46.984Z,6.70
2023-02-06T16:07:49.666Z,7.00
2023-02-06T16:12:52.216Z,7.67
2023-02-06T16:17:54.822Z,7.57
2023-02-06T16:23:17.641Z,5.80
2023-02-06T16:28:27.121Z,6.40
2023-02-06T16:33:39.113Z,5.70
2023-02-06T16:38:43.145Z,4.80
2023-02-06T16:43:46.226Z,5.23
2023-02-06T16:48:48.355Z,5.23
2023-02-06T16:53:50.928Z,5.90
2023-02-06T16:58:52.589Z,5.37
2023-02-06T17:03:55.029Z,8.57
2023-02-06T17:09:02.002Z,5.53
2023-02-06T17:14:03.901Z,5.60
2023-02-06T17:19:05.571Z,5.80
2023-02-06T17:24:07.301Z,7.60
2023-02-06T17:29:12.762Z,8.13
2023-02-06T17:34:14.499Z,7.50
2023-02-06T17:39:16.163Z,6.77
2023-02-06T17:44:18.786Z,7.93
2023-02-06T17:49:20.468Z,7.13
2023-02-06T17:54:22.485Z,6.20
2023-02-06T17:59:24.207Z,24.83
2023-02-06T18:04:25.917Z,9.97
2023-02-06T18:09:27.585Z,6.83
2023-02-06T18:14:29.279Z,5.60
2023-02-06T18:19:31.179Z,5.63
2023-02-06T18:24:32.945Z,5.23
2023-02-06T18:29:49.049Z,4.90
2023-02-06T18:34:51.686Z,5.90
2023-02-06T18:39:55.100Z,9.53
2023-02-06T18:44:56.870Z,9.87
2023-02-06T18:49:58.777Z,33.67
2023-02-06T18:55:00.473Z,18.97
2023-02-06T19:00:04.246Z,29.77
2023-02-06T19:05:06.309Z,37.57
2023-02-06T19:10:10.396Z,9.23
2023-02-06T19:15:13.148Z,6.20
2023-02-06T19:20:14.840Z,7.27
2023-02-06T19:25:16.616Z,4.83
2023-02-06T19:30:18.345Z,4.73
2023-02-06T19:35:20.238Z,6.63
2023-02-06T19:40:21.898Z,6.93
2023-02-06T19:45:23.650Z,7.07
2023-02-06T19:50:25.371Z,5.37
2023-02-06T19:55:27.105Z,7.67
2023-02-06T20:00:28.906Z,7.20
2023-02-06T20:05:33.694Z,6.37
2023-02-06T20:10:37.890Z,5.80
2023-02-06T20:15:39.899Z,5.17
2023-02-06T20:20:41.643Z,5.67
2023-02-06T20:25:43.289Z,4.30
2023-02-06T20:30:45.111Z,4.30
2023-02-06T20:35:46.765Z,4.23
2023-02-06T20:40:51.493Z,5.67
2023-02-06T20:45:53.196Z,4.50
2023-02-06T20:51:02.910Z,9.80
2023-02-06T20:56:04.772Z,6.23
2023-02-06T21:01:15.030Z,4.60
2023-02-06T21:06:16.944Z,4.07
2023-02-06T21:11:18.833Z,4.57
2023-02-06T21:16:20.477Z,4.70
2023-02-06T21:21:22.191Z,4.50
2023-02-06T21:26:25.336Z,4.37
2023-02-06T21:31:38.129Z,4.23
2023-02-06T21:36:41.683Z,4.30
2023-02-06T21:41:43.993Z,4.33
2023-02-06T21:46:45.929Z,3.93
2023-02-06T21:51:47.585Z,4.73
2023-02-06T21:56:49.239Z,4.70
2023-02-06T22:01:50.982Z,5.73
2023-02-06T22:06:52.640Z,4.97
2023-02-06T22:11:54.421Z,4.87
2023-02-06T22:16:56.078Z,5.00
2023-02-06T22:21:57.790Z,5.53
2023-02-06T22:26:59.523Z,5.80
2023-02-06T22:32:04.418Z,5.90
2023-02-06T22:37:06.102Z,5.93
2023-02-06T22:42:07.750Z,5.40
2023-02-06T22:47:09.401Z,6.30
2023-02-06T22:52:31.463Z,5.60
2023-02-06T22:57:35.258Z,5.37
2023-02-06T23:02:38.913Z,5.10
2023-02-06T23:07:40.563Z,5.80
2023-02-06T23:12:42.274Z,6.77
2023-02-06T23:17:43.959Z,6.47
2023-02-06T23:22:45.617Z,6.43
2023-02-06T23:27:47.388Z,6.20
2023-02-06T23:32:49.123Z,6.40
2023-02-06T23:37:50.773Z,6.63
2023-02-06T23:42:52.434Z,6.70
2023-02-06T23:47:54.918Z,6.40
2023-02-06T23:52:56.632Z,6.43
2023-02-06T23:57:58.366Z,5.60
